createdAt,value
2022-12-22T05:06:39.455Z,100920.31
2022-12-22T05:12:57.328Z,100907.13
2022-12-22T05:19:00.463Z,100911.00
2022-12-22T05:25:03.596Z,100913.97
2022-12-22T05:31:08.573Z,100922.75
2022-12-22T05:37:10.727Z,100920.84
2022-12-22T05:43:13.437Z,100929.28
2022-12-22T05:49:15.532Z,100929.75
2022-12-22T05:55:20.501Z,100920.59
2022-12-22T06:01:22.635Z,100928.75
2022-12-22T06:07:24.882Z,100927.91
2022-12-22T06:13:27.372Z,100923.94
2022-12-22T06:19:30.893Z,100925.00
2022-12-22T06:25:33.128Z,100922.97
2022-12-22T06:31:36.829Z,100936.75
2022-12-22T06:37:39.278Z,100934.53
2022-12-22T06:43:41.367Z,100938.97
2022-12-22T06:49:44.569Z,100932.13
2022-12-22T06:55:46.997Z,100928.63
2022-12-22T07:01:49.651Z,100922.63
2022-12-22T07:07:53.164Z,100923.00
2022-12-22T07:13:55.696Z,100921.41
2022-12-22T07:20:00.373Z,100928.19
2022-12-22T07:26:03.407Z,100922.19
2022-12-22T07:32:05.763Z,100927.81
2022-12-22T07:38:08.501Z,100936.38
2022-12-22T07:44:11.310Z,100930.19
2022-12-22T07:50:26.639Z,100934.50
2022-12-22T07:56:28.819Z,100935.97
2022-12-22T08:02:36.870Z,100931.13
2022-12-22T08:08:41.659Z,100931.59
2022-12-22T08:14:47.448Z,100943.72
2022-12-22T08:20:53.152Z,100946.06
2022-12-22T08:26:59.884Z,100945.25
2022-12-22T08:33:02.012Z,100933.72
2022-12-22T08:39:05.462Z,100929.84
2022-12-22T08:45:09.544Z,100920.91
2022-12-22T08:51:12.734Z,100908.31
2022-12-22T08:57:14.878Z,100909.91
2022-12-22T09:03:16.991Z,100910.81
2022-12-22T09:09:20.427Z,100896.97
2022-12-22T09:15:23.097Z,100888.25
2022-12-22T09:21:27.453Z,100882.00
2022-12-22T09:27:30.614Z,100890.28
2022-12-22T09:33:36.576Z,100877.13
2022-12-22T09:39:38.703Z,100874.03
2022-12-22T09:45:41.354Z,100871.94
2022-12-22T09:51:48.549Z,100867.19
2022-12-22T09:57:52.000Z,100861.00
2022-12-22T10:04:25.267Z,100857.19
2022-12-22T10:10:30.336Z,100845.13
2022-12-22T10:16:32.728Z,100824.16
2022-12-22T10:23:08.285Z,100820.81
2022-12-22T10:29:14.865Z,100803.25
2022-12-22T10:35:17.591Z,100797.75
2022-12-22T10:41:22.403Z,100799.78
2022-12-22T10:47:24.835Z,100798.16
2022-12-22T10:53:43.192Z,100792.25
2022-12-22T10:59:55.709Z,100790.44
2022-12-22T11:05:59.375Z,100778.69
2022-12-22T11:12:29.240Z,100764.50
2022-12-22T11:18:57.350Z,100758.09
2022-12-22T11:25:37.053Z,100755.97
2022-12-22T11:31:51.349Z,100742.06
2022-12-22T11:38:14.747Z,100742.09
2022-12-22T11:44:37.093Z,100735.69
2022-12-22T11:51:02.092Z,100736.22
2022-12-22T11:57:29.495Z,100727.81
2022-12-22T12:03:59.342Z,100726.34
2022-12-22T12:10:23.478Z,100726.00
2022-12-22T12:16:36.212Z,100724.81
2022-12-22T12:22:48.034Z,100720.91
2022-12-22T12:29:02.407Z,100724.78
2022-12-22T12:35:28.563Z,100727.34
2022-12-22T12:41:53.353Z,100722.84
2022-12-22T12:48:24.967Z,100718.00
2022-12-22T12:54:27.046Z,100715.09
2022-12-22T13:00:33.058Z,100715.97
2022-12-22T13:06:51.068Z,100722.72
2022-12-22T13:12:55.055Z,100719.19
2022-12-22T13:19:00.203Z,100722.50
2022-12-22T13:25:04.291Z,100716.81
2022-12-22T13:31:14.199Z,100710.47
2022-12-22T13:37:22.416Z,100687.09
2022-12-22T13:43:26.920Z,100689.56
2022-12-22T13:49:59.191Z,100692.47
2022-12-22T13:55:57.793Z,100683.88
2022-12-22T14:02:11.524Z,100680.16
2022-12-22T14:08:13.779Z,100676.81
2022-12-22T14:14:22.083Z,100677.16
2022-12-22T14:20:29.544Z,100678.06
2022-12-22T14:26:33.152Z,100682.97
2022-12-22T14:32:54.087Z,100678.31
2022-12-22T14:39:05.384Z,100676.28
2022-12-22T14:45:15.849Z,100664.16
2022-12-22T14:51:20.341Z,100660.41
2022-12-22T14:57:51.667Z,100658.50
2022-12-22T15:04:00.946Z,100662.44
2022-12-22T15:10:15.338Z,100655.25
2022-12-22T15:16:21.587Z,100648.09
2022-12-22T15:22:26.864Z,100656.53
2022-12-22T15:28:30.378Z,100658.63
2022-12-22T15:34:32.746Z,100665.13
2022-12-22T15:40:34.853Z,100672.09
2022-12-22T15:46:41.681Z,100663.25
2022-12-22T15:52:51.804Z,100664.34
2022-12-22T15:58:54.144Z,100668.19
2022-12-22T16:04:56.958Z,100673.47
2022-12-22T16:11:00.080Z,100680.66
2022-12-22T16:17:03.311Z,100679.53
2022-12-22T16:23:07.761Z,100675.75
2022-12-22T16:29:16.075Z,100673.50
2022-12-22T16:35:21.825Z,100676.94
2022-12-22T16:41:25.802Z,100673.06
2022-12-22T16:47:33.379Z,100666.78
2022-12-22T16:53:35.493Z,100662.22
2022-12-22T16:59:37.569Z,100658.34
2022-12-22T17:05:47.078Z,100658.00
2022-12-22T17:11:51.073Z,100671.31
2022-12-22T17:17:53.551Z,100656.41
2022-12-22T17:24:04.510Z,100651.94
2022-12-22T17:30:18.224Z,100659.94
2022-12-22T17:36:23.432Z,100657.88
2022-12-22T17:42:25.562Z,100647.69
2022-12-22T17:48:27.636Z,100649.63
2022-12-22T17:54:30.279Z,100647.31
2022-12-22T18:00:33.005Z,100648.19
2022-12-22T18:06:38.543Z,100630.28
2022-12-22T18:12:40.633Z,100622.34
2022-12-22T18:18:43.888Z,100611.69
2022-12-22T18:24:47.444Z,100620.50
